sensor_id;sensor_type;location;lat;lon;timestamp;P1;durP1;ratioP1;P2;durP2;ratioP2
84989;SDS011;75307;53.836;10.476;2024-03-08T00:01:03;17.90;;;7.75;;
84989;SDS011;75307;53.836;10.476;2024-03-08T00:03:07;17.45;;;8.20;;
84989;SDS011;75307;53.836;10.476;2024-03-08T00:05:10;14.90;;;6.43;;
84989;SDS011;75307;53.836;10.476;2024-03-08T00:07:12;19.95;;;7.63;;
84989;SDS011;75307;53.836;10.476;2024-03-08T00:09:16;17.15;;;7.45;;
84989;SDS011;75307;53.836;10.476;2024-03-08T00:11:18;16.13;;;6.30;;
84989;SDS011;75307;53.836;10.476;2024-03-08T00:13:20;13.48;;;6.80;;
84989;SDS011;75307;53.836;10.476;2024-03-08T00:15:21;17.80;;;7.47;;
84989;SDS011;75307;53.836;10.476;2024-03-08T00:17:23;15.00;;;7.47;;
84989;SDS011;75307;53.836;10.476;2024-03-08T00:19:25;15.57;;;7.95;;
84989;SDS011;75307;53.836;10.476;2024-03-08T00:21:27;16.48;;;7.22;;
84989;SDS011;75307;53.836;10.476;2024-03-08T00:23:28;16.30;;;7.78;;
84989;SDS011;75307;53.836;10.476;2024-03-08T00:25:31;15.48;;;7.85;;
84989;SDS011;75307;53.836;10.476;2024-03-08T00:27:34;17.27;;;7.57;;
84989;SDS011;75307;53.836;10.476;2024-03-08T00:29:36;15.35;;;7.25;;
84989;SDS011;75307;53.836;10.476;2024-03-08T00:31:38;15.43;;;7.07;;
84989;SDS011;75307;53.836;10.476;2024-03-08T00:33:40;16.52;;;7.47;;
84989;SDS011;75307;53.836;10.476;2024-03-08T00:35:42;19.05;;;7.30;;
84989;SDS011;75307;53.836;10.476;2024-03-08T00:37:44;18.42;;;7.28;;
84989;SDS011;75307;53.836;10.476;2024-03-08T00:39:47;17.80;;;7.68;;
84989;SDS011;75307;53.836;10.476;2024-03-08T00:41:49;12.68;;;6.07;;
84989;SDS011;75307;53.836;10.476;2024-03-08T00:43:50;16.55;;;6.55;;
84989;SDS011;75307;53.836;10.476;2024-03-08T00:45:52;16.05;;;7.10;;
84989;SDS011;75307;53.836;10.476;2024-03-08T00:47:54;17.10;;;7.30;;
84989;SDS011;75307;53.836;10.476;2024-03-08T00:49:56;15.43;;;6.93;;
84989;SDS011;75307;53.836;10.476;2024-03-08T00:51:57;16.95;;;6.40;;
84989;SDS011;75307;53.836;10.476;2024-03-08T00:53:59;15.63;;;7.20;;
84989;SDS011;75307;53.836;10.476;2024-03-08T00:56:01;17.75;;;6.90;;
84989;SDS011;75307;53.836;10.476;2024-03-08T00:58:05;18.52;;;6.90;;
84989;SDS011;75307;53.836;10.476;2024-03-08T01:00:09;15.93;;;6.70;;
84989;SDS011;75307;53.836;10.476;2024-03-08T01:02:12;18.95;;;7.00;;
84989;SDS011;75307;53.836;10.476;2024-03-08T01:04:14;18.08;;;7.22;;
84989;SDS011;75307;53.836;10.476;2024-03-08T01:06:15;16.27;;;7.25;;
84989;SDS011;75307;53.836;10.476;2024-03-08T01:08:17;19.02;;;8.25;;
84989;SDS011;75307;53.836;10.476;2024-03-08T01:10:19;15.32;;;6.97;;
84989;SDS011;75307;53.836;10.476;2024-03-08T01:12:20;14.90;;;6.60;;
84989;SDS011;75307;53.836;10.476;2024-03-08T01:14:23;18.10;;;6.50;;
84989;SDS011;75307;53.836;10.476;2024-03-08T01:16:26;16.42;;;7.03;;
84989;SDS011;75307;53.836;10.476;2024-03-08T01:18:27;17.20;;;6.90;;
84989;SDS011;75307;53.836;10.476;2024-03-08T01:20:30;16.42;;;6.55;;
84989;SDS011;75307;53.836;10.476;2024-03-08T01:22:32;15.10;;;6.40;;
84989;SDS011;75307;53.836;10.476;2024-03-08T01:24:33;16.90;;;6.30;;
84989;SDS011;75307;53.836;10.476;2024-03-08T01:26:36;16.55;;;7.57;;
84989;SDS011;75307;53.836;10.476;2024-03-08T01:28:38;17.88;;;7.13;;
84989;SDS011;75307;53.836;10.476;2024-03-08T01:30:40;18.17;;;6.82;;
84989;SDS011;75307;53.836;10.476;2024-03-08T01:32:43;20.05;;;7.15;;
84989;SDS011;75307;53.836;10.476;2024-03-08T01:34:45;13.43;;;7.07;;
84989;SDS011;75307;53.836;10.476;2024-03-08T01:36:46;16.38;;;6.90;;
84989;SDS011;75307;53.836;10.476;2024-03-08T01:38:48;16.02;;;6.95;;
84989;SDS011;75307;53.836;10.476;2024-03-08T01:40:50;20.17;;;7.60;;
84989;SDS011;75307;53.836;10.476;2024-03-08T01:42:51;16.13;;;7.07;;
84989;SDS011;75307;53.836;10.476;2024-03-08T01:44:54;15.70;;;7.22;;
84989;SDS011;75307;53.836;10.476;2024-03-08T01:46:57;17.13;;;6.88;;
84989;SDS011;75307;53.836;10.476;2024-03-08T01:48:59;17.10;;;7.53;;
84989;SDS011;75307;53.836;10.476;2024-03-08T01:51:02;20.30;;;7.90;;
84989;SDS011;75307;53.836;10.476;2024-03-08T01:53:04;14.75;;;6.40;;
84989;SDS011;75307;53.836;10.476;2024-03-08T01:55:06;14.90;;;6.72;;
84989;SDS011;75307;53.836;10.476;2024-03-08T01:57:09;14.25;;;7.13;;
84989;SDS011;75307;53.836;10.476;2024-03-08T01:59:09;21.00;;;7.03;;
84989;SDS011;75307;53.836;10.476;2024-03-08T02:01:12;17.95;;;7.15;;
84989;SDS011;75307;53.836;10.476;2024-03-08T02:03:16;21.38;;;7.80;;
84989;SDS011;75307;53.836;10.476;2024-03-08T02:05:18;21.75;;;8.82;;
84989;SDS011;75307;53.836;10.476;2024-03-08T02:07:20;17.77;;;8.07;;
84989;SDS011;75307;53.836;10.476;2024-03-08T02:09:23;19.45;;;7.90;;
84989;SDS011;75307;53.836;10.476;2024-03-08T02:11:25;20.42;;;8.00;;
84989;SDS011;75307;53.836;10.476;2024-03-08T02:13:27;20.90;;;8.18;;
84989;SDS011;75307;53.836;10.476;2024-03-08T02:17:52;18.67;;;8.95;;
84989;SDS011;75307;53.836;10.476;2024-03-08T02:19:56;22.67;;;8.38;;
84989;SDS011;75307;53.836;10.476;2024-03-08T02:21:59;19.63;;;8.07;;
84989;SDS011;75307;53.836;10.476;2024-03-08T02:24:04;18.27;;;7.70;;
84989;SDS011;75307;53.836;10.476;2024-03-08T02:26:07;18.85;;;8.18;;
84989;SDS011;75307;53.836;10.476;2024-03-08T02:28:08;17.25;;;7.50;;
84989;SDS011;75307;53.836;10.476;2024-03-08T02:30:11;20.27;;;9.23;;
84989;SDS011;75307;53.836;10.476;2024-03-08T02:32:13;21.25;;;8.35;;
84989;SDS011;75307;53.836;10.476;2024-03-08T02:34:14;18.27;;;8.52;;
84989;SDS011;75307;53.836;10.476;2024-03-08T02:36:16;18.65;;;8.32;;
84989;SDS011;75307;53.836;10.476;2024-03-08T02:38:19;23.77;;;8.85;;
84989;SDS011;75307;53.836;10.476;2024-03-08T02:40:22;24.27;;;8.57;;
84989;SDS011;75307;53.836;10.476;2024-03-08T02:42:23;18.52;;;8.18;;
84989;SDS011;75307;53.836;10.476;2024-03-08T02:44:25;16.40;;;7.72;;
84989;SDS011;75307;53.836;10.476;2024-03-08T02:46:27;17.23;;;7.03;;
84989;SDS011;75307;53.836;10.476;2024-03-08T02:48:30;20.30;;;8.02;;
84989;SDS011;75307;53.836;10.476;2024-03-08T02:50:32;16.63;;;8.00;;
84989;SDS011;75307;53.836;10.476;2024-03-08T02:52:33;17.27;;;7.95;;
84989;SDS011;75307;53.836;10.476;2024-03-08T02:54:36;17.88;;;7.88;;
84989;SDS011;75307;53.836;10.476;2024-03-08T02:56:38;18.02;;;7.72;;
84989;SDS011;75307;53.836;10.476;2024-03-08T02:58:39;14.77;;;7.57;;
84989;SDS011;75307;53.836;10.476;2024-03-08T03:00:41;18.10;;;7.57;;
84989;SDS011;75307;53.836;10.476;2024-03-08T03:02:43;22.25;;;9.05;;
84989;SDS011;75307;53.836;10.476;2024-03-08T03:04:45;22.10;;;7.57;;
84989;SDS011;75307;53.836;10.476;2024-03-08T03:06:47;20.77;;;7.15;;
84989;SDS011;75307;53.836;10.476;2024-03-08T03:08:49;16.33;;;7.20;;
84989;SDS011;75307;53.836;10.476;2024-03-08T03:10:52;18.20;;;6.97;;
84989;SDS011;75307;53.836;10.476;2024-03-08T03:12:56;17.50;;;6.70;;
84989;SDS011;75307;53.836;10.476;2024-03-08T03:14:58;17.73;;;7.05;;
84989;SDS011;75307;53.836;10.476;2024-03-08T03:16:59;18.48;;;7.55;;
84989;SDS011;75307;53.836;10.476;2024-03-08T03:19:00;20.83;;;7.40;;
84989;SDS011;75307;53.836;10.476;2024-03-08T03:21:05;20.35;;;7.55;;
84989;SDS011;75307;53.836;10.476;2024-03-08T03:23:07;17.73;;;7.43;;
84989;SDS011;75307;53.836;10.476;2024-03-08T03:25:09;21.67;;;7.65;;
84989;SDS011;75307;53.836;10.476;2024-03-08T03:27:13;16.60;;;6.40;;
84989;SDS011;75307;53.836;10.476;2024-03-08T03:29:15;20.02;;;6.45;;
84989;SDS011;75307;53.836;10.476;2024-03-08T03:31:17;19.08;;;7.20;;
84989;SDS011;75307;53.836;10.476;2024-03-08T03:33:19;17.33;;;7.07;;
84989;SDS011;75307;53.836;10.476;2024-03-08T03:35:21;18.35;;;6.65;;
84989;SDS011;75307;53.836;10.476;2024-03-08T03:37:23;18.98;;;7.07;;
84989;SDS011;75307;53.836;10.476;2024-03-08T03:39:25;16.60;;;6.72;;
84989;SDS011;75307;53.836;10.476;2024-03-08T03:41:30;18.15;;;6.78;;
84989;SDS011;75307;53.836;10.476;2024-03-08T03:43:32;16.85;;;6.00;;
84989;SDS011;75307;53.836;10.476;2024-03-08T03:45:34;19.80;;;7.82;;
84989;SDS011;75307;53.836;10.476;2024-03-08T03:47:36;17.08;;;6.97;;
84989;SDS011;75307;53.836;10.476;2024-03-08T03:49:38;19.70;;;7.50;;
84989;SDS011;75307;53.836;10.476;2024-03-08T03:51:40;15.85;;;6.50;;
84989;SDS011;75307;53.836;10.476;2024-03-08T03:53:42;18.95;;;7.05;;
84989;SDS011;75307;53.836;10.476;2024-03-08T03:55:44;17.73;;;7.32;;
84989;SDS011;75307;53.836;10.476;2024-03-08T03:57:47;14.57;;;6.53;;
84989;SDS011;75307;53.836;10.476;2024-03-08T03:59:50;16.23;;;7.18;;
84989;SDS011;75307;53.836;10.476;2024-03-08T04:01:51;18.15;;;6.88;;
84989;SDS011;75307;53.836;10.476;2024-03-08T04:03:53;16.83;;;7.40;;
84989;SDS011;75307;53.836;10.476;2024-03-08T04:05:55;18.95;;;7.35;;
84989;SDS011;75307;53.836;10.476;2024-03-08T04:07:57;18.00;;;7.80;;
84989;SDS011;75307;53.836;10.476;2024-03-08T04:09:57;14.45;;;6.22;;
84989;SDS011;75307;53.836;10.476;2024-03-08T04:11:59;18.98;;;7.72;;
84989;SDS011;75307;53.836;10.476;2024-03-08T04:14:01;18.02;;;7.90;;
84989;SDS011;75307;53.836;10.476;2024-03-08T04:16:04;16.00;;;7.45;;
84989;SDS011;75307;53.836;10.476;2024-03-08T04:18:08;20.98;;;7.22;;
84989;SDS011;75307;53.836;10.476;2024-03-08T04:20:09;17.33;;;7.57;;
84989;SDS011;75307;53.836;10.476;2024-03-08T04:22:13;19.50;;;7.28;;
84989;SDS011;75307;53.836;10.476;2024-03-08T04:24:14;20.08;;;7.72;;
84989;SDS011;75307;53.836;10.476;2024-03-08T04:26:17;20.95;;;7.63;;
84989;SDS011;75307;53.836;10.476;2024-03-08T04:28:18;16.02;;;7.28;;
84989;SDS011;75307;53.836;10.476;2024-03-08T04:30:20;16.50;;;7.03;;
84989;SDS011;75307;53.836;10.476;2024-03-08T04:32:24;16.33;;;7.40;;
84989;SDS011;75307;53.836;10.476;2024-03-08T04:34:26;16.63;;;7.28;;
84989;SDS011;75307;53.836;10.476;2024-03-08T04:36:29;17.73;;;7.25;;
84989;SDS011;75307;53.836;10.476;2024-03-08T04:38:30;19.00;;;7.65;;
84989;SDS011;75307;53.836;10.476;2024-03-08T04:40:32;20.27;;;8.02;;
84989;SDS011;75307;53.836;10.476;2024-03-08T04:42:34;19.90;;;7.53;;
84989;SDS011;75307;53.836;10.476;2024-03-08T04:44:38;22.98;;;8.23;;
84989;SDS011;75307;53.836;10.476;2024-03-08T04:46:40;24.23;;;9.55;;
84989;SDS011;75307;53.836;10.476;2024-03-08T04:48:43;24.83;;;10.10;;
84989;SDS011;75307;53.836;10.476;2024-03-08T04:50:45;26.15;;;10.27;;
84989;SDS011;75307;53.836;10.476;2024-03-08T04:52:46;28.38;;;10.43;;
84989;SDS011;75307;53.836;10.476;2024-03-08T04:54:49;29.95;;;9.95;;
84989;SDS011;75307;53.836;10.476;2024-03-08T04:56:50;27.02;;;10.88;;
84989;SDS011;75307;53.836;10.476;2024-03-08T04:58:52;23.67;;;9.18;;
84989;SDS011;75307;53.836;10.476;2024-03-08T05:00:54;28.58;;;10.68;;
84989;SDS011;75307;53.836;10.476;2024-03-08T05:02:56;24.25;;;11.00;;
84989;SDS011;75307;53.836;10.476;2024-03-08T05:04:59;36.75;;;11.75;;
84989;SDS011;75307;53.836;10.476;2024-03-08T05:07:02;26.10;;;10.32;;
84989;SDS011;75307;53.836;10.476;2024-03-08T05:09:04;36.13;;;13.05;;
84989;SDS011;75307;53.836;10.476;2024-03-08T05:11:13;26.65;;;11.88;;
84989;SDS011;75307;53.836;10.476;2024-03-08T05:13:15;32.45;;;12.15;;
84989;SDS011;75307;53.836;10.476;2024-03-08T05:15:19;32.45;;;12.35;;
84989;SDS011;75307;53.836;10.476;2024-03-08T05:17:21;28.10;;;12.00;;
84989;SDS011;75307;53.836;10.476;2024-03-08T05:19:24;29.13;;;10.88;;
84989;SDS011;75307;53.836;10.476;2024-03-08T05:21:27;37.55;;;13.35;;
84989;SDS011;75307;53.836;10.476;2024-03-08T05:23:29;31.60;;;11.35;;
84989;SDS011;75307;53.836;10.476;2024-03-08T05:25:31;34.13;;;13.50;;
84989;SDS011;75307;53.836;10.476;2024-03-08T05:27:31;31.23;;;12.45;;
84989;SDS011;75307;53.836;10.476;2024-03-08T05:29:33;32.60;;;12.18;;
84989;SDS011;75307;53.836;10.476;2024-03-08T05:31:36;33.83;;;12.82;;
84989;SDS011;75307;53.836;10.476;2024-03-08T05:35:44;37.00;;;11.77;;
84989;SDS011;75307;53.836;10.476;2024-03-08T05:37:47;30.67;;;11.68;;
84989;SDS011;75307;53.836;10.476;2024-03-08T05:39:49;32.15;;;13.13;;
84989;SDS011;75307;53.836;10.476;2024-03-08T05:41:51;35.17;;;12.93;;
84989;SDS011;75307;53.836;10.476;2024-03-08T05:43:53;32.85;;;12.48;;
84989;SDS011;75307;53.836;10.476;2024-03-08T05:45:54;36.97;;;13.98;;
84989;SDS011;75307;53.836;10.476;2024-03-08T05:47:56;38.58;;;13.23;;
84989;SDS011;75307;53.836;10.476;2024-03-08T05:49:58;32.30;;;12.23;;
84989;SDS011;75307;53.836;10.476;2024-03-08T05:52:01;39.58;;;12.77;;
84989;SDS011;75307;53.836;10.476;2024-03-08T05:54:06;33.63;;;12.68;;
84989;SDS011;75307;53.836;10.476;2024-03-08T05:56:10;32.15;;;12.73;;
84989;SDS011;75307;53.836;10.476;2024-03-08T05:58:11;37.55;;;12.57;;
84989;SDS011;75307;53.836;10.476;2024-03-08T06:00:13;34.63;;;12.15;;
84989;SDS011;75307;53.836;10.476;2024-03-08T06:02:16;34.63;;;12.00;;
84989;SDS011;75307;53.836;10.476;2024-03-08T06:04:19;32.20;;;12.85;;
84989;SDS011;75307;53.836;10.476;2024-03-08T06:06:20;30.35;;;12.18;;
84989;SDS011;75307;53.836;10.476;2024-03-08T06:08:21;32.58;;;11.75;;
84989;SDS011;75307;53.836;10.476;2024-03-08T06:10:25;28.52;;;11.32;;
84989;SDS011;75307;53.836;10.476;2024-03-08T06:12:27;27.88;;;11.65;;
84989;SDS011;75307;53.836;10.476;2024-03-08T06:14:32;33.03;;;10.93;;
84989;SDS011;75307;53.836;10.476;2024-03-08T06:16:35;32.55;;;12.23;;
84989;SDS011;75307;53.836;10.476;2024-03-08T06:18:38;32.22;;;12.13;;
84989;SDS011;75307;53.836;10.476;2024-03-08T06:20:39;34.90;;;13.13;;
84989;SDS011;75307;53.836;10.476;2024-03-08T06:22:43;29.35;;;12.30;;
84989;SDS011;75307;53.836;10.476;2024-03-08T06:24:45;29.92;;;11.50;;
84989;SDS011;75307;53.836;10.476;2024-03-08T06:26:49;29.88;;;11.80;;
84989;SDS011;75307;53.836;10.476;2024-03-08T06:28:50;33.42;;;12.95;;
84989;SDS011;75307;53.836;10.476;2024-03-08T06:30:52;25.83;;;11.20;;
84989;SDS011;75307;53.836;10.476;2024-03-08T06:32:54;26.20;;;11.32;;
84989;SDS011;75307;53.836;10.476;2024-03-08T06:34:56;28.42;;;11.95;;
84989;SDS011;75307;53.836;10.476;2024-03-08T06:36:57;25.30;;;11.25;;
84989;SDS011;75307;53.836;10.476;2024-03-08T06:39:01;26.25;;;10.65;;
84989;SDS011;75307;53.836;10.476;2024-03-08T06:41:09;28.38;;;10.52;;
84989;SDS011;75307;53.836;10.476;2024-03-08T06:43:16;34.17;;;11.80;;
84989;SDS011;75307;53.836;10.476;2024-03-08T17:53:42;22.42;;;9.77;;
84989;SDS011;75307;53.836;10.476;2024-03-08T17:55:49;18.33;;;8.40;;
84989;SDS011;75307;53.836;10.476;2024-03-08T17:57:52;23.38;;;10.02;;
84989;SDS011;75307;53.836;10.476;2024-03-08T17:59:54;21.83;;;10.02;;
84989;SDS011;75307;53.836;10.476;2024-03-08T18:01:56;17.60;;;9.75;;
84989;SDS011;75307;53.836;10.476;2024-03-08T18:03:58;19.45;;;10.75;;
84989;SDS011;75307;53.836;10.476;2024-03-08T18:06:01;19.65;;;10.13;;
84989;SDS011;75307;53.836;10.476;2024-03-08T18:08:05;21.40;;;10.18;;
84989;SDS011;75307;53.836;10.476;2024-03-08T18:10:09;19.90;;;10.32;;
84989;SDS011;75307;53.836;10.476;2024-03-08T18:14:16;19.48;;;9.40;;
84989;SDS011;75307;53.836;10.476;2024-03-08T18:16:18;19.20;;;10.18;;
84989;SDS011;75307;53.836;10.476;2024-03-08T18:18:20;20.60;;;10.05;;
84989;SDS011;75307;53.836;10.476;2024-03-08T18:20:24;23.52;;;10.82;;
84989;SDS011;75307;53.836;10.476;2024-03-08T18:22:29;25.30;;;9.70;;
84989;SDS011;75307;53.836;10.476;2024-03-08T18:24:33;25.63;;;11.63;;
84989;SDS011;75307;53.836;10.476;2024-03-08T18:26:36;21.10;;;11.30;;
84989;SDS011;75307;53.836;10.476;2024-03-08T18:28:37;21.75;;;11.15;;
84989;SDS011;75307;53.836;10.476;2024-03-08T18:30:41;19.35;;;9.23;;
84989;SDS011;75307;53.836;10.476;2024-03-08T18:32:45;23.20;;;10.57;;
84989;SDS011;75307;53.836;10.476;2024-03-08T18:34:47;23.33;;;10.27;;
84989;SDS011;75307;53.836;10.476;2024-03-08T18:36:50;24.00;;;10.43;;
84989;SDS011;75307;53.836;10.476;2024-03-08T18:38:52;22.42;;;9.00;;
84989;SDS011;75307;53.836;10.476;2024-03-08T18:40:54;24.00;;;10.85;;
84989;SDS011;75307;53.836;10.476;2024-03-08T18:42:57;26.20;;;12.45;;
84989;SDS011;75307;53.836;10.476;2024-03-08T18:45:00;24.27;;;9.20;;
84989;SDS011;75307;53.836;10.476;2024-03-08T18:47:08;20.38;;;9.10;;
84989;SDS011;75307;53.836;10.476;2024-03-08T18:49:09;23.40;;;11.43;;
84989;SDS011;75307;53.836;10.476;2024-03-08T18:51:11;20.40;;;9.98;;
84989;SDS011;75307;53.836;10.476;2024-03-08T18:53:13;20.95;;;11.10;;
84989;SDS011;75307;53.836;10.476;2024-03-08T18:55:16;24.92;;;9.27;;
84989;SDS011;75307;53.836;10.476;2024-03-08T18:57:21;20.23;;;10.38;;
84989;SDS011;75307;53.836;10.476;2024-03-08T18:59:23;25.02;;;10.18;;
84989;SDS011;75307;53.836;10.476;2024-03-08T19:01:27;22.20;;;9.52;;
84989;SDS011;75307;53.836;10.476;2024-03-08T19:03:31;23.02;;;10.73;;
84989;SDS011;75307;53.836;10.476;2024-03-08T19:05:34;21.95;;;10.77;;
84989;SDS011;75307;53.836;10.476;2024-03-08T19:07:36;25.13;;;10.05;;
84989;SDS011;75307;53.836;10.476;2024-03-08T19:09:38;23.35;;;10.57;;
84989;SDS011;75307;53.836;10.476;2024-03-08T19:11:42;21.13;;;9.40;;
84989;SDS011;75307;53.836;10.476;2024-03-08T19:13:44;21.48;;;10.98;;
84989;SDS011;75307;53.836;10.476;2024-03-08T19:15:46;23.15;;;9.68;;
84989;SDS011;75307;53.836;10.476;2024-03-08T19:17:51;20.98;;;11.38;;
84989;SDS011;75307;53.836;10.476;2024-03-08T19:19:53;25.15;;;11.60;;
84989;SDS011;75307;53.836;10.476;2024-03-08T19:21:55;25.77;;;11.90;;
84989;SDS011;75307;53.836;10.476;2024-03-08T19:23:57;22.35;;;10.23;;
84989;SDS011;75307;53.836;10.476;2024-03-08T19:25:58;23.75;;;10.82;;
84989;SDS011;75307;53.836;10.476;2024-03-08T19:28:00;22.50;;;12.10;;
84989;SDS011;75307;53.836;10.476;2024-03-08T19:30:05;24.40;;;11.60;;
84989;SDS011;75307;53.836;10.476;2024-03-08T19:32:10;22.95;;;10.20;;
84989;SDS011;75307;53.836;10.476;2024-03-08T19:34:12;25.02;;;10.77;;
84989;SDS011;75307;53.836;10.476;2024-03-08T19:36:14;26.30;;;10.68;;
84989;SDS011;75307;53.836;10.476;2024-03-08T19:38:18;23.35;;;10.55;;
84989;SDS011;75307;53.836;10.476;2024-03-08T19:40:20;20.92;;;11.32;;
84989;SDS011;75307;53.836;10.476;2024-03-08T19:42:24;24.90;;;11.07;;
84989;SDS011;75307;53.836;10.476;2024-03-08T19:44:26;26.55;;;12.93;;
84989;SDS011;75307;53.836;10.476;2024-03-08T19:46:28;29.52;;;14.10;;
84989;SDS011;75307;53.836;10.476;2024-03-08T19:48:36;32.78;;;15.25;;
84989;SDS011;75307;53.836;10.476;2024-03-08T19:50:38;23.20;;;11.50;;
84989;SDS011;75307;53.836;10.476;2024-03-08T19:52:42;24.75;;;13.38;;
84989;SDS011;75307;53.836;10.476;2024-03-08T19:54:45;25.05;;;12.30;;
84989;SDS011;75307;53.836;10.476;2024-03-08T19:56:46;24.73;;;12.45;;
84989;SDS011;75307;53.836;10.476;2024-03-08T19:58:48;26.00;;;11.75;;
84989;SDS011;75307;53.836;10.476;2024-03-08T20:00:52;25.73;;;12.07;;
84989;SDS011;75307;53.836;10.476;2024-03-08T20:02:54;25.33;;;14.25;;
84989;SDS011;75307;53.836;10.476;2024-03-08T20:05:01;24.15;;;12.70;;
84989;SDS011;75307;53.836;10.476;2024-03-08T20:07:04;27.65;;;12.73;;
84989;SDS011;75307;53.836;10.476;2024-03-08T20:09:08;24.10;;;11.10;;
84989;SDS011;75307;53.836;10.476;2024-03-08T20:11:11;24.25;;;11.80;;
84989;SDS011;75307;53.836;10.476;2024-03-08T20:13:15;22.63;;;11.00;;
84989;SDS011;75307;53.836;10.476;2024-03-08T20:15:17;27.05;;;12.10;;
84989;SDS011;75307;53.836;10.476;2024-03-08T20:17:18;29.98;;;13.98;;
84989;SDS011;75307;53.836;10.476;2024-03-08T20:19:20;24.83;;;12.13;;
84989;SDS011;75307;53.836;10.476;2024-03-08T20:21:23;24.02;;;10.80;;
84989;SDS011;75307;53.836;10.476;2024-03-08T20:23:25;25.17;;;12.88;;
84989;SDS011;75307;53.836;10.476;2024-03-08T20:25:27;24.20;;;13.02;;
84989;SDS011;75307;53.836;10.476;2024-03-08T20:27:32;24.65;;;10.52;;
84989;SDS011;75307;53.836;10.476;2024-03-08T20:29:34;24.25;;;12.50;;
84989;SDS011;75307;53.836;10.476;2024-03-08T20:31:36;24.77;;;11.77;;
84989;SDS011;75307;53.836;10.476;2024-03-08T20:33:38;23.77;;;12.57;;
84989;SDS011;75307;53.836;10.476;2024-03-08T20:35:41;23.05;;;11.63;;
84989;SDS011;75307;53.836;10.476;2024-03-08T20:37:46;23.85;;;11.60;;
84989;SDS011;75307;53.836;10.476;2024-03-08T20:39:48;24.95;;;11.20;;
84989;SDS011;75307;53.836;10.476;2024-03-08T20:41:52;25.15;;;11.85;;
84989;SDS011;75307;53.836;10.476;2024-03-08T20:43:54;24.63;;;11.73;;
84989;SDS011;75307;53.836;10.476;2024-03-08T20:45:57;25.45;;;10.55;;
84989;SDS011;75307;53.836;10.476;2024-03-08T20:48:00;18.23;;;11.10;;
84989;SDS011;75307;53.836;10.476;2024-03-08T20:50:03;26.38;;;10.80;;
84989;SDS011;75307;53.836;10.476;2024-03-08T20:52:08;25.67;;;11.73;;
84989;SDS011;75307;53.836;10.476;2024-03-08T20:54:11;24.33;;;11.13;;
84989;SDS011;75307;53.836;10.476;2024-03-08T20:56:15;31.70;;;12.85;;
84989;SDS011;75307;53.836;10.476;2024-03-08T20:58:18;20.88;;;10.20;;
84989;SDS011;75307;53.836;10.476;2024-03-08T21:00:22;25.17;;;12.32;;
84989;SDS011;75307;53.836;10.476;2024-03-08T21:02:37;27.05;;;11.38;;
84989;SDS011;75307;53.836;10.476;2024-03-08T21:04:38;25.80;;;13.32;;
84989;SDS011;75307;53.836;10.476;2024-03-08T21:06:45;25.83;;;11.82;;
84989;SDS011;75307;53.836;10.476;2024-03-08T21:08:46;27.92;;;12.85;;
84989;SDS011;75307;53.836;10.476;2024-03-08T21:10:49;22.35;;;11.40;;
84989;SDS011;75307;53.836;10.476;2024-03-08T21:12:53;23.20;;;13.13;;
84989;SDS011;75307;53.836;10.476;2024-03-08T21:14:55;24.52;;;11.35;;
84989;SDS011;75307;53.836;10.476;2024-03-08T21:16:56;24.58;;;11.75;;
84989;SDS011;75307;53.836;10.476;2024-03-08T21:18:58;24.52;;;10.90;;
84989;SDS011;75307;53.836;10.476;2024-03-08T21:21:00;19.25;;;9.50;;
84989;SDS011;75307;53.836;10.476;2024-03-08T21:23:02;23.15;;;10.98;;
84989;SDS011;75307;53.836;10.476;2024-03-08T21:25:05;25.65;;;12.10;;
84989;SDS011;75307;53.836;10.476;2024-03-08T21:27:08;23.27;;;12.02;;
84989;SDS011;75307;53.836;10.476;2024-03-08T21:29:10;22.05;;;10.10;;
84989;SDS011;75307;53.836;10.476;2024-03-08T21:31:13;24.35;;;11.85;;
84989;SDS011;75307;53.836;10.476;2024-03-08T21:33:14;23.52;;;11.55;;
84989;SDS011;75307;53.836;10.476;2024-03-08T21:35:18;19.17;;;9.52;;
84989;SDS011;75307;53.836;10.476;2024-03-08T21:37:20;22.48;;;10.82;;
84989;SDS011;75307;53.836;10.476;2024-03-08T21:39:20;23.95;;;12.13;;
84989;SDS011;75307;53.836;10.476;2024-03-08T21:41:28;25.15;;;10.73;;
84989;SDS011;75307;53.836;10.476;2024-03-08T21:43:31;25.45;;;12.27;;
84989;SDS011;75307;53.836;10.476;2024-03-08T21:45:34;27.33;;;12.32;;
84989;SDS011;75307;53.836;10.476;2024-03-08T21:47:37;26.08;;;11.32;;
84989;SDS011;75307;53.836;10.476;2024-03-08T21:49:38;23.35;;;11.25;;
84989;SDS011;75307;53.836;10.476;2024-03-08T21:51:44;23.02;;;9.65;;
84989;SDS011;75307;53.836;10.476;2024-03-08T21:53:47;23.73;;;11.05;;
84989;SDS011;75307;53.836;10.476;2024-03-08T21:55:49;23.80;;;9.85;;
84989;SDS011;75307;53.836;10.476;2024-03-08T21:57:50;23.75;;;11.95;;
84989;SDS011;75307;53.836;10.476;2024-03-08T21:59:53;24.63;;;11.00;;
84989;SDS011;75307;53.836;10.476;2024-03-08T22:01:55;23.73;;;11.57;;
84989;SDS011;75307;53.836;10.476;2024-03-08T22:03:57;24.48;;;12.90;;
84989;SDS011;75307;53.836;10.476;2024-03-08T22:06:00;23.63;;;11.05;;
84989;SDS011;75307;53.836;10.476;2024-03-08T22:08:05;25.15;;;9.63;;
84989;SDS011;75307;53.836;10.476;2024-03-08T22:10:07;24.58;;;11.20;;
84989;SDS011;75307;53.836;10.476;2024-03-08T22:12:08;26.52;;;11.75;;
84989;SDS011;75307;53.836;10.476;2024-03-08T22:14:10;25.42;;;10.70;;
84989;SDS011;75307;53.836;10.476;2024-03-08T22:16:14;25.92;;;11.50;;
84989;SDS011;75307;53.836;10.476;2024-03-08T22:18:16;25.60;;;11.13;;
84989;SDS011;75307;53.836;10.476;2024-03-08T22:20:17;25.98;;;12.15;;
84989;SDS011;75307;53.836;10.476;2024-03-08T22:22:21;22.67;;;10.38;;
84989;SDS011;75307;53.836;10.476;2024-03-08T22:24:23;24.17;;;11.02;;
84989;SDS011;75307;53.836;10.476;2024-03-08T22:26:25;23.33;;;11.63;;
84989;SDS011;75307;53.836;10.476;2024-03-08T22:28:29;25.27;;;10.18;;
84989;SDS011;75307;53.836;10.476;2024-03-08T22:30:31;25.10;;;12.68;;
84989;SDS011;75307;53.836;10.476;2024-03-08T22:32:33;19.63;;;10.43;;
84989;SDS011;75307;53.836;10.476;2024-03-08T22:34:35;21.33;;;11.20;;
84989;SDS011;75307;53.836;10.476;2024-03-08T22:36:37;29.90;;;11.63;;
84989;SDS011;75307;53.836;10.476;2024-03-08T22:38:39;26.38;;;11.93;;
84989;SDS011;75307;53.836;10.476;2024-03-08T22:40:40;22.27;;;11.73;;
84989;SDS011;75307;53.836;10.476;2024-03-08T22:42:42;23.90;;;10.73;;
84989;SDS011;75307;53.836;10.476;2024-03-08T22:44:45;26.23;;;11.38;;
84989;SDS011;75307;53.836;10.476;2024-03-08T22:46:46;23.13;;;10.55;;
84989;SDS011;75307;53.836;10.476;2024-03-08T22:48:49;23.13;;;11.20;;
84989;SDS011;75307;53.836;10.476;2024-03-08T22:50:50;24.15;;;11.25;;
84989;SDS011;75307;53.836;10.476;2024-03-08T22:52:52;27.65;;;9.85;;
84989;SDS011;75307;53.836;10.476;2024-03-08T22:54:55;22.67;;;10.10;;
84989;SDS011;75307;53.836;10.476;2024-03-08T22:56:57;24.95;;;12.40;;
84989;SDS011;75307;53.836;10.476;2024-03-08T22:59:05;25.50;;;11.32;;
84989;SDS011;75307;53.836;10.476;2024-03-08T23:01:06;23.13;;;10.65;;
84989;SDS011;75307;53.836;10.476;2024-03-08T23:03:09;22.67;;;10.23;;
84989;SDS011;75307;53.836;10.476;2024-03-08T23:05:14;22.15;;;12.65;;